メインページ
METAR-TAF:

METAR-TAF

空港 :

Chetwynd, ブリティッシュコロンビア州, カナダ

緯度: 55-42N, 経度: 121-38W, 海抜: 609m

現時点の気象観測

当レポートは1時間50分前の01:00(UTC)に作成
南/南西の風 12kt、最大21ktの突風を伴う
気温 8°C
湿度 46%
気圧 1013 hPa
視程: 24.1km
高度3000ftの雲はほとんどない
高度4000ftの雲はほとんどない
高度11000ftの雲は散在している
高度21000ftの曇り

METAR: CYCQ 200100Z 21012G21KT 15SM FEW030 FEW040 SCT110 OVC210 08/M03 A2990 RMK SC1SC1AC2CI4 DIST PCPN W LAST STFD OBS/NEXT 201300Z SLP153

時間: 19:50 (02:50 UTC)


TAF: 見つかりません

4,000以上の空港の気象観測と天気予報(METAR報とTAF報)

利用可能な観測所は地図上に黄色い丸と赤い丸で示す。

丸の上にカーソルを重ねると観測所名を参照できる。

次にクリックすると気象観測と天気予報を参照できる。

マップの切り替え:黒色「×」印の緑ボタンをクリックして拡大、「-」印の緑ボタンをクリックして縮小、緑色の三角印をクリックして隣りの地図に切り替え


METAR-TAF: